KHAO

Butler Co Regional-Hogan Field Airport

Hamilton, Ohio, USA
METAR KHAO 231053Z AUTO 00000KT 10SM BKN020 16/16 A3011 RMK AO2 SLP193 T01610156
Observed Flight Rules
May-23 @ 10:53 UTC (23 minutes ago) Marginal Visual Flight Rules
Visibility Clouds
10 miles
  • Broken at 2,000' AGL
Temperatures Readings
Current 16°C / 61°F
Dewpoint 16°C / 61°F
Humidity 100%
Altimeter 30.11" Hg
Pressure 1019.3 hPa
Elevation 188
METAR KHAO 231053Z AUTO 00000KT 10SM BKN020 16/16 A3011 RMK AO2 SLP193 T01610156
Observed Flight Rules
May-23 @ 10:53 UTC
(23 minutes ago)
MVFR
Clouds
  • Broken at 2,000' AGL
Temperature Dewpoint
16°C / 61°F 16°C / 61°F
Humidity Altimeter Pressure
100% 30.11" Hg 1019.3 hPa